RELACIONES PÚBLICAS

27/12/2017PERSPECTIVAS CLIMÁTICAS PARA ENERO – FEBRERO - MARZO 2017  Se adjunta el Informe de Perspectivas Climáticas para el trimestre Enero, Febrero y Marzo del 2017.http://meteorologia.gub.uy/ServCli/tendenciasClimaticas

Productos aeronáuticos

  • SIGMET
  • METAR / SPECI
  • TAF
  • AIREP
  • Aviso de aeródromo
  • Pronárea
  • Carta superficie

Mensajes METAR de la última hora

SUAA 211500Z 03007KT CAVOK 30/16 Q1019
SUDU 211500Z 03003KT CAVOK 28/17 Q1017
SULS 211500Z 06006KT 010V110 CAVOK 30/18 Q1018
SUMU 211500Z 01013KT CAVOK 30/15 Q1018 NOSIG

Mensajes METAR de la última hora - Internacionales


Argentina
SAAR 211500Z 36008KT 9999 FEW035 31/22 Q1016
SABE 211500Z 02007KT 350V050 CAVOK 29/21 Q1017
SACO 211500Z 02012KT CAVOK 31/14 Q1017
SAEZ 211500Z 35008KT 310V010 9999 FEW050TCU 32/19 Q1016
SAME 211500Z 05006KT 9999 FEW045 34/13 Q1014
Bolivia
SLCP 211500Z 36005KT 9999 BKN010 OVC070 25/24 Q1018
SLLP 211500Z 12011KT 100V170 9999 FEW015 SCT070 BKN200 10/00 Q1041
Brasil
SBBR 211500Z 13009KT 9999 BKN030 28/19 Q1020
SBFI 211500Z 03005KT 9999 SCT030 31/21 Q1016
SBFL 211500Z 12014KT 9999 SCT030 SCT035 FEW040TCU 25/23 Q1018
SBGR 211500Z 07006KT 9999 BKN011 BKN080 22/20 Q1020
SBPA 211500Z 11012KT 9999 SCT040 28/17 Q1018
SBRJ 211500Z 17009KT 9999 FEW018 31/24 Q1015
SBSP 211500Z 10004KT 9999 FEW008 SCT040 BKN045 21/18 Q1021 RERA
SBRJ 211430Z 15006KT 9999 SCT018 31/25 Q1015
SBSP 211429Z 08004KT 8000 -RA FEW006 BKN032 20/18 Q1021 RERA
Colombia
SKBO 211500Z 33004KT 9999 BKN020 SCT200 16/07 A3041
Chile
SCCI 211500Z 26020KT 9999 SCT040 BKN080 13/03 Q1005 NOSIG
SCEL 211500Z VRB02KT 7000 NSC 29/10 Q1013 NOSIG
Ecuador
SEQM 211500Z 31003KT 280V340 6000 BCFG SCT004 BKN020 OVC080 14/12 Q1030 NOSIG RMK A3043
SEQM 211425Z 30003KT 260V350 5000 2000S BCFG SCT004 BKN020 OVC080 13/12 Q1030 BECMG TL1530 4000 RMK A3043
EEUU
KMIA 211453Z 16007KT 10SM FEW030 SCT045 25/19 A2999 RMK AO2 SLP157 T02500194 53002
KDCA 211452Z 18007KT 6SM BR SCT003 OVC006 09/09 A2993 RMK AO2 SLP134 60000 T00890089 53003 $
KIAD 211452Z 21004KT 1/8SM R01R/P6000FT BR OVC002 08/08 A2991 RMK AO2 SFC VIS 1 SLP129 60000 T00830078 53001
KJFK 211451Z 24009KT 8SM OVC008 07/07 A2991 RMK AO2 SLP127 T00720072 53003
KLGA 211451Z 22007KT 7SM SCT011 SCT070 BKN250 09/06 A2989 RMK AO2 SLP120 T00890056 53001 $
España
LEBL 211500Z 04024G36KT 9999 FEW025 12/04 Q1016 TEMPO SHRA FEW025TCU
LEMD 211500Z 03010KT 010V070 9999 FEW050 11/M01 Q1017 NOSIG
LEBL 211430Z 05022G35KT 9999 FEW025TCU SCT050 12/05 Q1016 TEMPO SHRA FEW025TCU
LEMD 211430Z 03007KT 350V070 9999 FEW050 11/M01 Q1016 NOSIG
Francia
LFPO 211500Z 03003KT 330V070 8000 NSC 02/M04 Q1026 NOSIG
LFPO 211430Z VRB02KT 8000 NSC 02/M05 Q1026 NOSIG
Inglaterra
EGLL 211450Z AUTO 11007KT 9999 NCD 04/M06 Q1026 NOSIG
EGLL 211420Z AUTO 10008KT 9999 NCD 05/M06 Q1026 NOSIG
Panamá
MPTO 211500Z 00000KT 9999 FEW020 27/23 Q1016 NOSIG
Paraguay
SGAS 211500Z VRB04KT 9999 SCT033 35/24 Q1014

* Datos extraidos del Text DataServer de la NOAA (NOAA TEXT DATA SERVER)

Instituto Uruguayo de Meteorología

Dr. Javier Barrios Amorín 1488 - CP 11200
1895 int 108

Montevideo - Uruguay